Time;durP1;ratioP1;P1;durP2;ratioP2;P2;SDS_P1;SDS_P2;PMS_P1;PMS_P2;Temp;Humidity;BMP_temperature;BMP_pressure;BME280_temperature;BME280_humidity;BME280_pressure;Samples;Min_cycle;Max_cycle;Signal;HPM_P1;HPM_P2
2024/04/05 00:01:56;;;;;;;5.65;1.65;;;12.50;99.90;;;;;;4876916;29;20516;-80
2024/04/05 00:04:22;;;;;;;3.10;1.23;;;12.30;99.90;;;;;;4883543;29;20041;-80
2024/04/05 00:06:47;;;;;;;4.10;1.35;;;12.20;99.90;;;;;;4880388;29;20048;-80
2024/04/05 00:09:13;;;;;;;3.30;1.10;;;12.00;99.90;;;;;;4880357;29;20573;-79
2024/04/05 00:11:39;;;;;;;3.08;1.10;;;11.90;99.90;;;;;;4885284;29;20041;-79
2024/04/05 00:14:04;;;;;;;2.58;1.13;;;11.70;99.90;;;;;;4880358;29;20560;-80
2024/04/05 00:16:30;;;;;;;3.42;0.95;;;11.50;1.00;;;;;;4885335;29;20129;-80
2024/04/05 00:18:56;;;;;;;2.67;0.93;;;11.50;1.00;;;;;;4867660;29;20049;-85
2024/04/05 00:21:22;;;;;;;3.38;0.90;;;11.40;1.00;;;;;;4880132;29;20080;-79
2024/04/05 00:23:49;;;;;;;3.30;0.90;;;11.40;1.00;;;;;;4867192;29;20068;-79
2024/04/05 00:26:14;;;;;;;4.30;1.60;;;11.40;1.00;;;;;;4880226;29;20044;-79
2024/04/05 00:28:40;;;;;;;1.92;1.10;;;11.40;1.00;;;;;;4866528;29;20414;-79
2024/04/05 00:31:08;;;;;;;2.92;1.00;;;11.40;27.70;;;;;;4842721;29;20049;-79
2024/04/05 00:33:37;;;;;;;3.67;2.17;;;11.40;47.00;;;;;;4879845;29;20037;-79
2024/04/05 00:36:04;;;;;;;3.20;1.50;;;11.40;40.60;;;;;;4859121;29;20041;-79
2024/04/05 00:38:30;;;;;;;3.60;1.30;;;11.40;38.90;;;;;;4892644;29;20156;-79
2024/04/05 00:40:56;;;;;;;2.55;1.02;;;11.40;92.40;;;;;;4879718;29;20525;-79
2024/04/05 00:43:22;;;;;;;2.35;1.10;;;11.50;97.90;;;;;;4842760;29;20038;-79
2024/04/05 00:45:50;;;;;;;2.80;1.13;;;11.50;81.80;;;;;;4847777;29;20162;-79
2024/04/05 00:48:18;;;;;;;2.42;1.20;;;11.60;49.40;;;;;;4849946;29;20058;-81
2024/04/05 00:50:44;;;;;;;2.30;1.20;;;11.60;7.80;;;;;;4842910;29;20049;-81
2024/04/05 00:53:15;;;;;;;2.83;1.15;;;11.60;1.00;;;;;;4843073;29;20201;-81
2024/04/05 00:55:42;;;;;;;2.40;1.20;;;11.60;1.00;;;;;;4843077;29;20406;-82
2024/04/05 00:58:09;;;;;;;2.72;1.10;;;11.60;1.00;;;;;;4842556;29;20038;-83
2024/04/05 01:00:35;;;;;;;2.95;1.40;;;11.60;1.00;;;;;;4842771;29;20136;-82
2024/04/05 01:03:01;;;;;;;3.15;1.30;;;11.60;1.00;;;;;;4844273;29;20077;-82
2024/04/05 01:05:27;;;;;;;2.42;1.45;;;11.50;1.00;;;;;;4826780;29;20046;-83
2024/04/05 01:07:53;;;;;;;3.50;1.52;;;11.50;1.00;;;;;;4840067;29;20042;-83
2024/04/05 01:10:20;;;;;;;3.45;2.00;;;11.50;29.70;;;;;;4845902;29;20082;-85
2024/04/05 01:12:57;;;;;;;2.95;1.80;;;11.50;41.30;;;;;;4863731;29;20038;-83
2024/04/05 01:15:23;;;;;;;3.25;1.45;;;11.50;43.40;;;;;;4861617;29;20044;-83
2024/04/05 01:17:50;;;;;;;3.10;1.80;;;11.50;35.90;;;;;;4842332;29;20042;-83
2024/04/05 01:20:18;;;;;;;2.55;1.70;;;11.50;20.40;;;;;;4860677;29;20033;-82
2024/04/05 01:22:52;;;;;;;4.43;1.83;;;11.50;1.00;;;;;;4860102;29;20494;-85
2024/04/05 01:25:19;;;;;;;2.53;1.33;;;11.50;1.00;;;;;;4860913;29;20052;-85
2024/04/05 01:27:45;;;;;;;3.53;1.75;;;11.50;1.00;;;;;;4826629;29;20061;-83
2024/04/05 01:30:11;;;;;;;2.67;1.67;;;11.50;1.00;;;;;;4847510;29;20474;-85
2024/04/05 01:32:36;;;;;;;2.67;1.60;;;11.50;1.00;;;;;;4860833;29;20045;-84
2024/04/05 01:35:02;;;;;;;2.88;1.42;;;11.50;1.00;;;;;;4843698;29;20037;-84
2024/04/05 01:37:27;;;;;;;2.45;1.45;;;11.50;1.00;;;;;;4829911;29;20034;-84
2024/04/05 01:39:53;;;;;;;3.70;1.52;;;11.50;1.00;;;;;;4860417;29;20064;-84
2024/04/05 01:42:18;;;;;;;3.33;1.40;;;11.40;1.00;;;;;;4825486;29;20069;-84
2024/04/05 01:44:44;;;;;;;4.22;1.55;;;11.40;1.00;;;;;;4825823;29;20399;-84
2024/04/05 01:47:10;;;;;;;4.35;1.52;;;11.40;1.00;;;;;;4853472;29;20501;-84
2024/04/05 01:49:35;;;;;;;2.10;1.30;;;11.40;1.00;;;;;;4838804;29;20038;-85
2024/04/05 01:52:01;;;;;;;2.58;1.30;;;11.30;1.00;;;;;;4827217;29;20050;-83
2024/04/05 01:54:27;;;;;;;2.92;1.42;;;11.20;1.00;;;;;;4823551;29;20042;-84
2024/04/05 01:56:52;;;;;;;3.08;1.20;;;11.10;1.00;;;;;;4823978;29;20047;-85
2024/04/05 01:59:18;;;;;;;2.13;1.30;;;11.00;1.00;;;;;;4824278;29;20444;-84
2024/04/05 02:01:43;;;;;;;3.70;1.55;;;10.90;1.00;;;;;;4810957;29;20039;-84
2024/04/05 02:04:09;;;;;;;3.15;1.60;;;10.80;1.00;;;;;;4811042;29;20061;-85
2024/04/05 02:06:35;;;;;;;3.75;1.55;;;10.80;1.00;;;;;;4836946;29;20042;-85
2024/04/05 02:09:00;;;;;;;4.25;1.70;;;10.70;1.00;;;;;;4842459;29;20041;-87
2024/04/05 02:11:26;;;;;;;4.03;1.65;;;10.70;1.20;;;;;;4847518;29;20042;-85
2024/04/05 02:13:51;;;;;;;5.13;2.13;;;10.60;23.90;;;;;;4842222;29;20041;-86
2024/04/05 02:16:17;;;;;;;2.65;1.70;;;10.50;57.50;;;;;;4841943;29;20034;-85
2024/04/05 02:18:42;;;;;;;3.30;1.70;;;10.50;99.90;;;;;;4807421;29;20043;-83
2024/04/05 02:21:08;;;;;;;3.05;1.60;;;10.40;99.90;;;;;;4828527;29;20428;-84
2024/04/05 02:23:33;;;;;;;5.13;1.73;;;10.40;99.90;;;;;;4836393;29;20083;-83
2024/04/05 02:25:59;;;;;;;2.97;1.65;;;10.40;99.90;;;;;;4841553;29;20044;-83
2024/04/05 02:28:25;;;;;;;3.05;1.55;;;10.30;99.90;;;;;;4841677;29;20125;-83
2024/04/05 02:30:50;;;;;;;4.22;1.85;;;10.30;99.90;;;;;;4841277;29;20050;-84
2024/04/05 02:33:16;;;;;;;4.00;1.70;;;10.30;99.90;;;;;;4841240;29;20038;-83
2024/04/05 02:35:41;;;;;;;5.05;1.73;;;10.30;99.90;;;;;;4854828;29;20042;-83
2024/04/05 02:38:07;;;;;;;3.95;2.00;;;10.40;98.10;;;;;;4900521;29;20037;-86
2024/04/05 02:40:33;;;;;;;3.75;1.92;;;10.40;38.40;;;;;;4916266;29;20032;-84
2024/04/05 02:42:59;;;;;;;3.85;1.70;;;10.50;1.00;;;;;;4878597;29;20049;-86
2024/04/05 02:45:24;;;;;;;2.85;1.70;;;10.50;1.00;;;;;;4841206;29;20042;-84
2024/04/05 02:47:50;;;;;;;4.30;2.20;;;10.50;1.00;;;;;;4881807;29;20233;-84
2024/04/05 02:50:16;;;;;;;3.58;1.67;;;10.50;1.00;;;;;;4925021;29;20046;-84
2024/04/05 02:52:41;;;;;;;3.67;1.73;;;10.50;1.00;;;;;;4935167;29;20131;-84
2024/04/05 02:55:07;;;;;;;4.40;1.73;;;10.50;1.00;;;;;;4878266;29;20041;-83
2024/04/05 02:57:32;;;;;;;3.65;1.95;;;10.40;1.00;;;;;;4878183;29;20036;-84
2024/04/05 02:59:58;;;;;;;3.35;1.90;;;10.30;1.00;;;;;;4841321;29;20066;-84
2024/04/05 03:02:24;;;;;;;3.75;2.15;;;10.20;1.00;;;;;;4841229;29;20069;-84
2024/04/05 03:04:49;;;;;;;4.13;2.13;;;10.20;1.00;;;;;;4854743;29;20049;-83
2024/04/05 03:07:15;;;;;;;3.53;2.00;;;10.20;1.00;;;;;;4841401;29;20034;-84
2024/04/05 03:09:41;;;;;;;5.50;2.55;;;10.10;1.00;;;;;;4802945;29;20067;-83
2024/04/05 03:12:06;;;;;;;4.55;2.00;;;10.00;1.00;;;;;;4803249;29;20099;-84
2024/04/05 03:14:32;;;;;;;4.25;2.10;;;10.00;1.00;;;;;;4849662;29;20506;-84
2024/04/05 03:16:57;;;;;;;3.95;2.10;;;9.90;1.00;;;;;;4846131;29;20034;-84
2024/04/05 03:19:23;;;;;;;3.90;2.10;;;9.90;1.00;;;;;;4854676;29;20041;-84
2024/04/05 03:21:49;;;;;;;3.78;1.92;;;9.90;1.00;;;;;;4841022;29;20106;-83
2024/04/05 03:24:14;;;;;;;3.33;2.03;;;9.80;1.00;;;;;;4822669;29;20050;-84
2024/04/05 03:26:42;;;;;;;5.22;2.10;;;9.80;1.00;;;;;;4822573;29;20060;-84
2024/04/05 03:29:08;;;;;;;3.95;2.05;;;9.70;1.00;;;;;;4854732;29;20121;-85
2024/04/05 03:31:35;;;;;;;3.33;1.98;;;9.70;1.00;;;;;;4873272;29;20056;-84
2024/04/05 03:34:00;;;;;;;4.78;2.22;;;9.70;1.00;;;;;;4878259;29;20041;-85
2024/04/05 03:36:26;;;;;;;4.72;1.92;;;9.70;1.00;;;;;;4878366;29;20097;-85
2024/04/05 03:38:52;;;;;;;4.18;2.05;;;9.60;1.00;;;;;;4897565;29;20185;-84
2024/04/05 03:41:18;;;;;;;4.13;1.75;;;9.60;1.00;;;;;;4881367;29;20160;-84
2024/04/05 03:43:44;;;;;;;4.70;1.80;;;9.60;1.00;;;;;;4881413;29;20037;-84
2024/04/05 03:46:09;;;;;;;3.13;2.03;;;9.60;1.00;;;;;;4853721;29;20042;-84
2024/04/05 03:48:35;;;;;;;3.38;1.75;;;9.50;1.00;;;;;;4844245;29;20133;-83
2024/04/05 03:51:00;;;;;;;6.03;1.92;;;9.50;1.00;;;;;;4843837;29;20041;-83
2024/04/05 03:53:26;;;;;;;4.93;2.10;;;9.50;1.00;;;;;;4844364;29;20490;-84
2024/04/05 03:55:54;;;;;;;4.00;1.80;;;9.50;1.00;;;;;;4843902;29;20393;-84
2024/04/05 03:58:21;;;;;;;4.75;1.98;;;9.50;1.00;;;;;;4860598;29;20060;-84
2024/04/05 04:00:51;;;;;;;4.63;1.67;;;9.40;1.00;;;;;;4876644;29;20037;-84
2024/04/05 04:03:17;;;;;;;3.83;1.75;;;9.40;1.00;;;;;;4864980;29;20057;-84
2024/04/05 04:05:44;;;;;;;4.00;1.80;;;9.40;1.00;;;;;;4880972;29;20041;-84
2024/04/05 04:08:09;;;;;;;3.83;1.55;;;9.40;1.00;;;;;;4880791;29;20063;-84
2024/04/05 04:10:35;;;;;;;5.68;1.83;;;9.40;1.00;;;;;;4862118;29;20592;-84
2024/04/05 04:13:01;;;;;;;3.70;1.88;;;9.40;1.00;;;;;;4843839;29;20119;-84
2024/04/05 04:15:26;;;;;;;5.07;1.95;;;9.30;1.00;;;;;;4846067;29;20487;-84
2024/04/05 04:17:52;;;;;;;4.45;1.65;;;9.30;1.00;;;;;;4847916;29;20399;-84
2024/04/05 04:20:19;;;;;;;3.33;2.22;;;9.30;1.00;;;;;;4862123;29;20029;-85
2024/04/05 04:22:46;;;;;;;5.40;2.50;;;9.30;1.00;;;;;;4862044;29;20532;-83
2024/04/05 04:25:11;;;;;;;3.63;1.80;;;9.30;1.00;;;;;;4843467;29;20586;-84
2024/04/05 04:27:37;;;;;;;9.15;2.47;;;9.30;1.00;;;;;;4858469;29;20042;-83
2024/04/05 04:30:04;;;;;;;4.50;1.63;;;9.40;1.00;;;;;;4847128;29;20117;-84
2024/04/05 04:32:33;;;;;;;2.95;1.73;;;9.40;1.00;;;;;;4873089;29;20391;-84
2024/04/05 04:34:59;;;;;;;4.10;1.75;;;9.70;1.00;;;;;;4880428;29;20041;-84
2024/04/05 04:37:25;;;;;;;2.85;1.60;;;10.20;99.90;;;;;;4895127;29;20509;-84
2024/04/05 04:39:50;;;;;;;3.17;1.77;;;10.00;99.90;;;;;;4928414;29;20040;-84
2024/04/05 04:42:17;;;;;;;4.07;1.75;;;9.90;99.90;;;;;;4917815;29;20224;-84
2024/04/05 04:44:43;;;;;;;3.72;1.50;;;10.40;99.90;;;;;;4913629;29;20041;-84
2024/04/05 04:47:08;;;;;;;5.47;1.80;;;10.60;99.90;;;;;;4898952;29;20043;-84
2024/04/05 04:49:34;;;;;;;3.83;1.60;;;10.40;99.90;;;;;;4898740;29;20040;-84
2024/04/05 04:52:00;;;;;;;3.00;1.50;;;10.70;99.90;;;;;;4872632;29;20051;-84
2024/04/05 04:54:28;;;;;;;3.47;1.42;;;12.40;32.90;;;;;;4898706;29;20409;-84
2024/04/05 04:56:53;;;;;;;3.35;1.48;;;13.40;99.90;;;;;;4898924;29;20036;-84
2024/04/05 04:59:19;;;;;;;3.53;1.30;;;13.60;1.00;;;;;;4898505;29;20121;-84
2024/04/05 05:01:44;;;;;;;4.60;2.35;;;13.60;99.90;;;;;;4879870;29;20037;-84
2024/04/05 05:04:12;;;;;;;3.28;1.70;;;14.20;99.90;;;;;;4879923;29;20100;-84
2024/04/05 05:06:38;;;;;;;4.00;2.15;;;15.40;99.90;;;;;;4861009;29;20068;-84
2024/04/05 05:09:03;;;;;;;4.20;2.28;;;15.70;1.00;;;;;;4860765;29;20073;-84
2024/04/05 05:11:29;;;;;;;4.00;2.30;;;16.20;1.00;;;;;;4875243;29;20064;-83
2024/04/05 05:13:56;;;;;;;4.40;2.13;;;16.40;99.90;;;;;;4856326;29;20410;-83
2024/04/05 05:16:23;;;;;;;4.20;1.80;;;17.50;95.00;;;;;;4875121;29;20126;-83
2024/04/05 05:18:49;;;;;;;4.25;1.73;;;18.10;1.00;;;;;;4879562;29;20216;-83
2024/04/05 05:21:14;;;;;;;3.05;1.48;;;19.10;99.90;;;;;;4842039;29;20388;-83
2024/04/05 05:23:40;;;;;;;2.78;1.40;;;20.60;1.00;;;;;;4810234;29;20043;-83
2024/04/05 05:26:06;;;;;;;4.18;1.30;;;20.90;99.90;;;;;;4787818;30;20031;-83
2024/04/05 05:28:32;;;;;;;3.92;1.70;;;20.80;39.10;;;;;;4787966;30;20503;-84
2024/04/05 05:30:58;;;;;;;2.88;1.42;;;21.60;25.10;;;;;;4787676;30;20063;-83
2024/04/05 05:33:24;;;;;;;4.22;1.65;;;21.90;1.00;;;;;;4833352;29;20034;-83
2024/04/05 05:35:49;;;;;;;2.28;1.15;;;22.10;1.00;;;;;;4842006;29;20590;-83
2024/04/05 05:38:15;;;;;;;2.53;1.33;;;22.00;1.00;;;;;;4823574;29;20163;-82
2024/04/05 05:40:41;;;;;;;3.05;1.73;;;22.10;99.90;;;;;;4823526;29;20065;-83
2024/04/05 05:43:07;;;;;;;5.22;1.67;;;22.70;99.90;;;;;;4823566;29;20049;-83
2024/04/05 05:45:32;;;;;;;3.67;1.70;;;22.60;99.90;;;;;;4835430;29;20482;-84
2024/04/05 05:47:58;;;;;;;3.03;1.88;;;22.90;99.90;;;;;;4841610;29;20053;-82
2024/04/05 05:50:24;;;;;;;2.55;1.58;;;22.10;99.90;;;;;;4841537;29;20037;-82
2024/04/05 05:52:50;;;;;;;3.92;2.00;;;21.00;99.90;;;;;;4828569;29;20129;-82
2024/04/05 05:55:16;;;;;;;3.65;1.40;;;21.70;99.90;;;;;;4810502;29;20122;-82
2024/04/05 05:57:42;;;;;;;4.07;1.92;;;22.60;99.90;;;;;;4855133;29;20083;-82
2024/04/05 06:00:11;;;;;;;3.20;1.90;;;23.20;99.90;;;;;;4847367;29;20037;-83
2024/04/05 06:02:38;;;;;;;2.75;1.70;;;23.90;99.90;;;;;;4859592;29;20055;-82
2024/04/05 06:05:05;;;;;;;4.53;1.63;;;25.10;99.90;;;;;;4878352;29;20040;-81
2024/04/05 06:07:31;;;;;;;3.53;1.60;;;25.30;99.90;;;;;;4892859;29;20563;-80
2024/04/05 06:09:58;;;;;;;5.50;1.90;;;24.80;99.90;;;;;;4845202;29;20034;-81
2024/04/05 06:12:25;;;;;;;2.70;1.90;;;25.10;99.90;;;;;;4841239;29;20134;-80
2024/04/05 06:14:54;;;;;;;3.35;1.50;;;25.20;99.90;;;;;;4841308;29;20410;-82
2024/04/05 06:17:21;;;;;;;3.45;1.70;;;25.40;99.90;;;;;;4841438;29;20074;-80
2024/04/05 06:19:51;;;;;;;3.40;1.45;;;25.90;99.90;;;;;;4841577;29;20103;-79
2024/04/05 06:22:17;;;;;;;2.50;1.35;;;26.70;99.90;;;;;;4872852;29;20052;-82
2024/04/05 06:24:43;;;;;;;2.63;1.33;;;27.10;99.90;;;;;;4878216;29;20029;-80
2024/04/05 06:27:09;;;;;;;3.25;1.60;;;27.00;99.90;;;;;;4896651;29;20033;-81
2024/04/05 06:29:34;;;;;;;4.93;1.42;;;26.20;99.90;;;;;;4877984;29;20437;-81
2024/04/05 06:32:00;;;;;;;2.60;1.30;;;24.20;99.90;;;;;;4877754;29;20497;-81
2024/04/05 06:34:25;;;;;;;4.28;1.40;;;24.10;99.90;;;;;;4877989;29;20060;-81
2024/04/05 06:36:52;;;;;;;3.25;1.50;;;27.00;99.90;;;;;;4878086;29;20448;-81
2024/04/05 06:39:17;;;;;;;2.47;1.23;;;28.70;99.90;;;;;;4859722;29;20068;-81
2024/04/05 06:41:43;;;;;;;3.15;1.50;;;29.90;1.00;;;;;;4905179;29;20079;-80
2024/04/05 06:44:08;;;;;;;5.55;1.80;;;27.30;1.00;;;;;;4915572;29;20056;-81
2024/04/05 06:46:34;;;;;;;4.25;1.23;;;24.90;1.00;;;;;;4915307;29;20488;-81
2024/04/05 06:48:59;;;;;;;6.65;1.38;;;26.00;1.00;;;;;;4886148;29;20051;-81
2024/04/05 06:51:25;;;;;;;2.80;1.30;;;28.20;1.00;;;;;;4896608;29;20052;-81
2024/04/05 06:53:50;;;;;;;3.58;1.17;;;28.50;1.00;;;;;;4877672;29;20029;-81
2024/04/05 06:56:17;;;;;;;4.07;1.23;;;27.70;1.00;;;;;;4877840;29;20120;-81
2024/04/05 06:58:43;;;;;;;3.35;1.42;;;26.50;1.00;;;;;;4891387;29;20480;-81
2024/04/05 07:01:08;;;;;;;4.28;1.70;;;25.10;1.00;;;;;;4872684;29;20037;-81
2024/04/05 07:03:34;;;;;;;4.88;2.28;;;24.20;1.00;;;;;;4859002;29;20066;-82
2024/04/05 07:06:07;;;;;;;3.97;1.30;;;23.90;1.00;;;;;;4858851;29;20110;-82
2024/04/05 07:08:35;;;;;;;3.20;1.33;;;22.70;1.00;;;;;;4858939;29;20034;-81
2024/04/05 07:11:01;;;;;;;3.08;1.50;;;21.00;1.00;;;;;;4844125;29;20542;-81
2024/04/05 07:13:26;;;;;;;3.47;1.20;;;19.40;99.90;;;;;;4840677;29;20129;-81
2024/04/05 07:15:52;;;;;;;2.55;1.25;;;18.50;99.90;;;;;;4844098;29;20083;-81
2024/04/05 07:18:24;;;;;;;3.58;1.42;;;18.20;99.90;;;;;;4825955;29;20499;-81
2024/04/05 07:20:50;;;;;;;2.75;1.15;;;17.90;99.90;;;;;;4811146;29;20103;-81
2024/04/05 07:23:16;;;;;;;5.53;1.75;;;17.70;99.90;;;;;;4844096;29;20034;-81
2024/04/05 07:25:41;;;;;;;3.65;1.25;;;17.50;1.00;;;;;;4841582;29;20138;-81
2024/04/05 07:28:07;;;;;;;4.30;1.80;;;17.00;1.00;;;;;;4843841;29;20190;-81
2024/04/05 07:30:37;;;;;;;5.47;2.00;;;16.60;94.00;;;;;;4843590;29;20061;-81
2024/04/05 07:33:03;;;;;;;5.70;2.17;;;16.40;99.90;;;;;;4843821;29;20351;-81
2024/04/05 07:35:29;;;;;;;4.25;1.60;;;16.20;1.00;;;;;;4843967;29;20042;-81
2024/04/05 07:37:55;;;;;;;3.90;1.40;;;16.00;1.00;;;;;;4844067;29;20040;-81
2024/04/05 07:40:23;;;;;;;4.18;1.50;;;16.00;1.00;;;;;;4844070;29;20494;-81
2024/04/05 07:42:51;;;;;;;4.45;1.70;;;15.80;92.60;;;;;;4843818;29;20034;-81
2024/04/05 07:45:17;;;;;;;3.08;1.60;;;15.90;99.90;;;;;;4846946;29;20038;-81
2024/04/05 07:47:42;;;;;;;4.00;1.70;;;15.70;99.90;;;;;;4862110;29;20085;-81
2024/04/05 07:50:08;;;;;;;7.78;2.00;;;15.90;99.90;;;;;;4861985;29;20045;-81
2024/04/05 07:52:34;;;;;;;4.60;1.95;;;16.20;99.90;;;;;;4862285;29;20122;-81
2024/04/05 07:54:59;;;;;;;5.68;1.98;;;16.10;99.90;;;;;;4861954;29;20097;-80
2024/04/05 07:57:25;;;;;;;4.18;1.80;;;16.50;63.10;;;;;;4862137;29;20038;-81
2024/04/05 07:59:51;;;;;;;5.90;2.38;;;16.80;1.00;;;;;;4844540;29;20520;-82
2024/04/05 08:02:16;;;;;;;4.43;1.50;;;16.60;1.00;;;;;;4872820;29;20506;-82
2024/04/05 08:04:42;;;;;;;5.15;1.80;;;16.90;1.00;;;;;;4880501;29;20094;-82
2024/04/05 08:07:09;;;;;;;4.88;1.65;;;17.10;1.00;;;;;;4880314;29;20059;-81
2024/04/05 08:09:34;;;;;;;5.90;1.80;;;16.80;99.90;;;;;;4861577;29;20041;-81
2024/04/05 08:12:00;;;;;;;4.55;1.65;;;16.70;1.00;;;;;;4842967;29;20529;-80
2024/04/05 08:14:25;;;;;;;4.85;1.80;;;16.40;1.00;;;;;;4829509;29;20072;-80
2024/04/05 08:16:51;;;;;;;4.63;1.90;;;16.10;1.00;;;;;;4824808;29;20042;-81
2024/04/05 08:19:18;;;;;;;5.68;1.67;;;16.20;73.50;;;;;;4811581;29;20598;-81
2024/04/05 08:21:43;;;;;;;4.38;1.95;;;16.70;92.50;;;;;;4824775;29;20038;-79
2024/04/05 08:24:09;;;;;;;4.88;1.95;;;16.90;1.00;;;;;;4811259;29;20419;-82
2024/04/05 08:26:35;;;;;;;5.15;1.98;;;16.80;1.00;;;;;;4819676;29;20133;-82
2024/04/05 08:29:02;;;;;;;4.97;1.90;;;17.10;1.00;;;;;;4824530;29;20030;-83
2024/04/05 08:31:28;;;;;;;5.97;1.85;;;17.20;1.00;;;;;;4856464;29;20057;-82
2024/04/05 08:33:54;;;;;;;4.47;1.85;;;18.10;99.90;;;;;;4847791;29;20434;-82
2024/04/05 08:36:20;;;;;;;6.85;2.13;;;19.30;99.90;;;;;;4842838;29;20049;-82
2024/04/05 08:38:47;;;;;;;4.32;1.65;;;21.10;1.00;;;;;;4852106;29;20034;-80
2024/04/05 08:41:24;;;;;;;6.05;1.70;;;21.90;1.00;;;;;;4832297;29;20068;-81
2024/04/05 08:43:51;;;;;;;5.28;1.60;;;23.30;99.90;;;;;;4839587;29;20038;-82
2024/04/05 08:46:17;;;;;;;8.27;2.30;;;22.60;99.90;;;;;;4824312;29;20043;-82
2024/04/05 08:48:45;;;;;;;9.82;2.33;;;22.10;99.90;;;;;;4842553;29;20159;-81
2024/04/05 08:51:12;;;;;;;5.00;1.60;;;23.60;99.90;;;;;;4827011;29;20038;-83
2024/04/05 08:53:37;;;;;;;7.13;1.58;;;23.80;99.90;;;;;;4795918;29;20061;-83
2024/04/05 08:56:06;;;;;;;5.40;1.70;;;23.00;99.90;;;;;;4821846;29;20034;-83
2024/04/05 08:58:31;;;;;;;9.02;1.63;;;21.40;99.90;;;;;;4824029;29;20727;-83
2024/04/05 09:00:57;;;;;;;5.20;1.98;;;22.10;99.90;;;;;;4792213;29;20137;-83
2024/04/05 09:03:22;;;;;;;5.07;1.80;;;21.60;99.90;;;;;;4825804;29;20042;-83
2024/04/05 09:05:50;;;;;;;4.72;1.70;;;23.80;99.90;;;;;;4860749;29;20055;-82
2024/04/05 09:08:16;;;;;;;4.70;1.70;;;27.80;99.90;;;;;;4877134;29;20033;-83
2024/04/05 09:10:50;;;;;;;3.55;1.50;;;30.20;58.50;;;;;;4876848;29;20469;-82
2024/04/05 09:13:17;;;;;;;3.90;1.98;;;30.20;1.50;;;;;;4860895;29;20041;-83
2024/04/05 09:15:49;;;;;;;10.20;5.50;;;32.00;1.00;;;;;;4860469;29;20037;-82
2024/04/05 09:18:26;;;;;;;6.22;2.53;;;32.00;1.00;;;;;;4842114;29;20508;-83
2024/04/05 09:20:51;;;;;;;4.45;2.05;;;29.10;1.00;;;;;;4824547;29;20133;-83
2024/04/05 09:23:17;;;;;;;3.90;1.48;;;27.20;1.00;;;;;;4824848;29;20066;-83
2024/04/05 09:25:44;;;;;;;7.10;2.20;;;26.70;1.00;;;;;;4860416;29;20094;-83
2024/04/05 09:28:14;;;;;;;4.93;2.00;;;26.20;1.00;;;;;;4825939;29;20174;-83
2024/04/05 09:30:40;;;;;;;5.40;1.90;;;27.90;1.00;;;;;;4806349;29;20495;-83
2024/04/05 09:33:06;;;;;;;4.82;1.77;;;25.00;1.00;;;;;;4841807;29;20174;-83
2024/04/05 09:35:37;;;;;;;6.53;1.77;;;25.00;1.00;;;;;;4824016;29;20038;-84
2024/04/05 09:38:06;;;;;;;4.80;1.90;;;27.90;1.00;;;;;;4859942;29;20030;-81
2024/04/05 09:40:34;;;;;;;5.22;1.48;;;29.10;1.00;;;;;;4860549;29;20049;-85
2024/04/05 09:43:03;;;;;;;3.83;1.55;;;31.00;1.00;;;;;;4878752;29;20052;-86
2024/04/05 09:45:31;;;;;;;7.15;4.30;;;28.20;1.00;;;;;;4897532;29;20428;-85
2024/04/05 09:47:57;;;;;;;4.50;2.30;;;25.70;1.00;;;;;;4878997;29;20029;-86
2024/04/05 09:50:23;;;;;;;8.25;3.20;;;24.70;1.00;;;;;;4878608;29;20185;-82
2024/04/05 09:52:52;;;;;;;5.50;1.77;;;23.40;1.00;;;;;;4897105;29;20525;-84
2024/04/05 09:55:23;;;;;;;5.10;2.00;;;21.60;1.00;;;;;;4898636;29;20040;-84
2024/04/05 09:57:49;;;;;;;7.00;2.05;;;21.30;1.00;;;;;;4879749;29;20068;-84
2024/04/05 10:00:20;;;;;;;5.47;1.85;;;20.20;1.00;;;;;;4897069;29;20088;-85
2024/04/05 10:02:48;;;;;;;7.22;2.40;;;19.80;1.00;;;;;;4878705;29;20037;-85
2024/04/05 10:05:32;;;;;;;23.85;14.32;;;19.60;1.40;;;;;;4879140;29;20041;-84
2024/04/05 10:08:12;;;;;;;6.80;3.00;;;19.50;37.30;;;;;;4897433;29;20032;-85
2024/04/05 10:10:40;;;;;;;5.68;2.50;;;19.50;42.80;;;;;;4895394;29;20450;-85
2024/04/05 10:13:15;;;;;;;5.00;2.17;;;19.50;69.20;;;;;;4859763;29;20076;-86
2024/04/05 10:15:57;;;;;;;;;;;21.50;54.10;;;;;;4867522;29;20053;-85
2024/04/05 10:18:30;;;;;;;6.60;2.20;;;20.80;35.60;;;;;;4841758;29;20333;-86
2024/04/05 10:21:09;;;;;;;6.45;2.22;;;20.20;43.10;;;;;;4829066;29;20038;-86
2024/04/05 10:23:36;;;;;;;5.20;1.70;;;19.70;70.50;;;;;;4841533;29;20045;-85
2024/04/05 10:26:03;;;;;;;6.80;2.13;;;19.40;87.70;;;;;;4823130;29;20034;-86
2024/04/05 10:28:29;;;;;;;3.60;1.77;;;18.80;99.90;;;;;;4816934;29;20039;-86
2024/04/05 10:30:59;;;;;;;4.80;1.70;;;18.70;99.90;;;;;;4787258;29;20090;-86
2024/04/05 10:33:26;;;;;;;4.95;1.95;;;19.00;99.90;;;;;;4804912;29;20043;-86
2024/04/05 10:35:57;;;;;;;8.57;3.00;;;20.10;99.90;;;;;;4775051;30;20047;-86
2024/04/05 10:38:23;;;;;;;8.18;3.00;;;21.80;99.90;;;;;;4751119;30;20058;-85
2024/04/05 10:40:58;;;;;;;8.68;3.00;;;21.90;99.90;;;;;;4750923;30;20044;-83
2024/04/05 10:43:24;;;;;;;7.88;1.98;;;22.90;90.70;;;;;;4772169;30;20039;-82
2024/04/05 10:45:56;;;;;;;5.22;1.90;;;22.80;61.50;;;;;;4786164;30;20035;-83
2024/04/05 10:48:23;;;;;;;3.00;1.17;;;23.00;48.40;;;;;;4787444;29;20392;-82
2024/04/05 10:50:49;;;;;;;4.45;1.42;;;23.30;24.40;;;;;;4804057;29;20039;-82
2024/04/05 10:53:20;;;;;;;5.05;1.50;;;22.70;12.90;;;;;;4804160;29;20138;-82
2024/04/05 10:55:47;;;;;;;4.20;1.65;;;21.40;4.80;;;;;;4822500;29;20030;-83
2024/04/05 10:58:13;;;;;;;4.20;2.10;;;21.20;29.30;;;;;;4839900;29;20094;-84
2024/04/05 11:00:40;;;;;;;4.53;1.60;;;21.30;23.40;;;;;;4822841;29;20056;-84
2024/04/05 11:03:09;;;;;;;8.50;4.68;;;20.70;12.30;;;;;;4822074;29;20043;-84
2024/04/05 11:05:35;;;;;;;6.28;2.47;;;20.60;6.10;;;;;;4804898;29;20443;-83
2024/04/05 11:08:03;;;;;;;4.43;1.75;;;20.00;15.80;;;;;;4875441;29;20043;-82
2024/04/05 11:10:33;;;;;;;3.47;1.30;;;19.70;19.00;;;;;;4860013;29;20045;-82
2024/04/05 11:13:00;;;;;;;7.25;2.58;;;19.40;35.50;;;;;;4840742;29;20046;-84
2024/04/05 11:15:25;;;;;;;8.85;3.13;;;18.90;70.70;;;;;;4841829;29;20030;-83
2024/04/05 11:17:59;;;;;;;9.27;1.95;;;18.60;92.70;;;;;;4822374;29;20076;-84
2024/04/05 11:20:27;;;;;;;5.95;2.03;;;18.50;99.30;;;;;;4822259;29;20041;-85
2024/04/05 11:23:03;;;;;;;9.63;2.40;;;18.40;99.90;;;;;;4856749;29;20142;-84
2024/04/05 11:25:29;;;;;;;4.18;2.00;;;18.40;99.90;;;;;;4877481;29;20097;-83
2024/04/05 11:27:57;;;;;;;5.40;1.73;;;18.40;99.90;;;;;;4877875;29;20048;-84
2024/04/05 11:30:24;;;;;;;6.50;2.25;;;18.30;99.90;;;;;;4870781;29;20049;-85
2024/04/05 11:32:50;;;;;;;6.03;1.88;;;18.50;99.90;;;;;;4823028;29;20201;-84
2024/04/05 11:35:15;;;;;;;5.68;1.73;;;18.50;99.90;;;;;;4840594;29;20074;-85
2024/04/05 11:37:45;;;;;;;8.07;2.10;;;18.80;99.90;;;;;;4875934;29;20049;-84
2024/04/05 11:40:12;;;;;;;6.50;1.35;;;19.00;99.90;;;;;;4896534;29;20037;-85
2024/04/05 11:42:39;;;;;;;8.77;4.32;;;18.80;99.90;;;;;;4915760;29;20044;-86
2024/04/05 11:45:05;;;;;;;7.63;3.72;;;19.00;99.90;;;;;;4896565;29;20051;-87
2024/04/05 11:47:33;;;;;;;5.05;1.90;;;19.00;99.90;;;;;;4879441;29;20041;-86
2024/04/05 11:49:58;;;;;;;4.20;1.90;;;18.90;99.90;;;;;;4877524;29;20553;-84
2024/04/05 11:52:24;;;;;;;3.92;1.48;;;18.90;99.90;;;;;;4894017;29;20135;-84
2024/04/05 11:54:49;;;;;;;5.95;1.58;;;18.90;99.90;;;;;;4858835;29;20101;-84
2024/04/05 11:57:16;;;;;;;5.80;1.85;;;19.00;99.90;;;;;;4840130;29;20069;-84
2024/04/05 11:59:43;;;;;;;3.85;1.15;;;19.20;99.90;;;;;;4840924;29;20502;-84
2024/04/05 12:02:09;;;;;;;6.35;1.35;;;19.10;99.90;;;;;;4847109;29;20132;-84
2024/04/05 12:04:36;;;;;;;6.05;1.95;;;19.90;99.90;;;;;;4825251;29;20042;-83
2024/04/05 12:07:03;;;;;;;4.43;1.45;;;20.50;94.90;;;;;;4825037;29;20411;-83
2024/04/05 12:09:30;;;;;;;4.80;1.60;;;20.80;78.40;;;;;;4843510;29;20068;-83
2024/04/05 12:11:55;;;;;;;6.45;1.58;;;21.50;60.40;;;;;;4843372;29;20153;-83
2024/04/05 12:14:21;;;;;;;8.00;1.80;;;21.10;52.50;;;;;;4847046;29;20136;-85
2024/04/05 12:16:48;;;;;;;6.50;1.95;;;20.80;42.30;;;;;;4858182;29;20036;-85
2024/04/05 12:19:14;;;;;;;6.50;2.15;;;20.80;57.80;;;;;;4861760;29;20044;-84
2024/04/05 12:21:41;;;;;;;5.35;2.10;;;20.80;57.80;;;;;;4849767;29;20053;-83
2024/04/05 12:24:06;;;;;;;5.55;2.10;;;21.00;55.20;;;;;;4853399;29;20107;-84
2024/04/05 12:26:32;;;;;;;6.28;1.60;;;21.20;58.50;;;;;;4839042;29;20034;-84
2024/04/05 12:28:58;;;;;;;6.05;1.60;;;20.90;47.60;;;;;;4828840;29;20102;-84
2024/04/05 12:31:25;;;;;;;4.40;1.35;;;20.50;46.80;;;;;;4825223;29;20119;-84
2024/04/05 12:33:51;;;;;;;6.90;2.03;;;20.10;32.50;;;;;;4810479;29;20038;-83
2024/04/05 12:36:17;;;;;;;4.68;1.70;;;20.20;57.10;;;;;;4810597;29;20099;-84
2024/04/05 12:38:47;;;;;;;4.00;1.48;;;20.10;73.50;;;;;;4824806;29;20034;-84
2024/04/05 12:41:13;;;;;;;5.82;1.58;;;20.50;71.00;;;;;;4810559;29;20107;-84
2024/04/05 12:43:39;;;;;;;5.93;1.88;;;20.90;63.60;;;;;;4839078;29;20049;-84
2024/04/05 12:46:06;;;;;;;4.88;1.60;;;20.60;63.10;;;;;;4827853;29;20042;-73
2024/04/05 12:48:33;;;;;;;11.05;2.45;;;21.20;63.80;;;;;;4861108;29;20042;-73
2024/04/05 12:51:00;;;;;;;6.80;2.10;;;21.50;52.30;;;;;;4845967;29;20038;-72